Rubcovsk, Russia
Current Conditions -  °F | °C
As of 3:00 PM on Thursday 23 Oct 2014 (Local Time) from UASS Reporting Station
Clear Clear  
Wind Chill: 57°   Ceiling: Unl
Heat Index: 57°   Visibility: 6mi
Dew Point: 37°   Wind: 9mph
Humidity: 48%   Direction: 170°S
Pressure: 29.8"   Gusts: NA
Location:  51.53°N, 81.2°E
Report Text: UASS 230800Z 17004MPS 150V210 CAVOK 14/03 Q1009 R26/0///60NOSIG RMK QFE738/0985
Loading
Personal Weather Stations






























Interactive Weather Map
Tropical Storm Tracking
New forecast layout! Learn more

10-Day Weather Forecast

Advertisements
Track Severe Weather on mobile